Time;durP1;ratioP1;P1;durP2;ratioP2;P2;SDS_P1;SDS_P2;PMS_P1;PMS_P2;Temp;Humidity;BMP_temperature;BMP_pressure;BME280_temperature;BME280_humidity;BME280_pressure;Samples;Min_cycle;Max_cycle;Signal;HPM_P1;HPM_P2
2022/11/20 00:01:09;;;;;;;16.43;13.17;;;;;;;;;;4976265;28;20178;-86
2022/11/20 00:03:35;;;;;;;17.67;13.83;;;;;;;;;;4976077;28;20298;-86
2022/11/20 00:06:06;;;;;;;19.67;14.10;;;;;;;;;;4975958;28;20186;-85
2022/11/20 00:08:32;;;;;;;17.20;13.73;;;;;;;;;;4976366;28;20241;-86
2022/11/20 00:11:02;;;;;;;17.83;13.87;;;;;;;;;;4960164;28;20179;-86
2022/11/20 00:13:28;;;;;;;17.40;13.70;;;;;;;;;;4976121;28;20254;-86
2022/11/20 00:15:58;;;;;;;18.00;13.63;;;;;;;;;;4959338;28;20286;-79
2022/11/20 00:18:25;;;;;;;16.87;13.30;;;;;;;;;;4975599;28;20186;-79
2022/11/20 00:20:51;;;;;;;19.13;14.37;;;;;;;;;;4976284;28;20214;-79
2022/11/20 00:23:17;;;;;;;17.97;13.97;;;;;;;;;;4960108;28;20202;-79
2022/11/20 00:25:43;;;;;;;17.00;13.60;;;;;;;;;;4959892;28;20238;-79
2022/11/20 00:28:09;;;;;;;17.27;13.30;;;;;;;;;;4975593;28;20179;-79
2022/11/20 00:30:35;;;;;;;17.47;13.57;;;;;;;;;;4975436;28;20277;-79
2022/11/20 00:33:01;;;;;;;17.10;13.03;;;;;;;;;;4959378;28;20277;-79
2022/11/20 00:35:27;;;;;;;17.77;14.00;;;;;;;;;;4956960;28;20210;-79
2022/11/20 00:37:53;;;;;;;16.53;13.77;;;;;;;;;;4940249;29;20179;-79
2022/11/20 00:40:19;;;;;;;18.63;14.80;;;;;;;;;;4940101;29;20184;-79
2022/11/20 00:42:45;;;;;;;18.37;13.83;;;;;;;;;;4955831;29;20289;-79
2022/11/20 00:45:11;;;;;;;18.20;13.67;;;;;;;;;;4955730;29;20186;-86
2022/11/20 00:47:37;;;;;;;18.57;14.67;;;;;;;;;;4960437;28;20183;-86
2022/11/20 00:50:03;;;;;;;18.23;15.47;;;;;;;;;;4959469;28;20187;-86
2022/11/20 00:52:29;;;;;;;17.20;13.67;;;;;;;;;;4975220;28;20190;-86
2022/11/20 00:54:55;;;;;;;19.83;13.53;;;;;;;;;;4959370;28;20281;-86
2022/11/20 00:57:21;;;;;;;15.47;13.33;;;;;;;;;;4958817;28;20194;-85
2022/11/20 00:59:47;;;;;;;16.57;13.40;;;;;;;;;;4958772;28;20994;-86
2022/11/20 01:02:15;;;;;;;15.93;13.03;;;;;;;;;;4958933;28;20191;-77
2022/11/20 01:04:41;;;;;;;24.23;14.03;;;;;;;;;;4959196;28;20268;-76
2022/11/20 01:07:07;;;;;;;17.17;12.77;;;;;;;;;;4958853;28;20191;-76
2022/11/20 01:09:33;;;;;;;15.57;13.13;;;;;;;;;;4973764;28;20215;-77
2022/11/20 01:12:00;;;;;;;32.73;25.63;;;;;;;;;;4974970;28;20217;-78
2022/11/20 01:14:26;;;;;;;24.50;18.37;;;;;;;;;;4975228;28;20190;-76
2022/11/20 01:16:52;;;;;;;20.63;14.93;;;;;;;;;;4974930;28;20194;-79
2022/11/20 01:19:20;;;;;;;19.43;14.70;;;;;;;;;;4974626;28;20179;-79
2022/11/20 01:21:48;;;;;;;21.97;16.20;;;;;;;;;;4974605;28;20209;-79
2022/11/20 01:24:15;;;;;;;22.33;16.30;;;;;;;;;;4975737;28;20209;-79
2022/11/20 01:26:42;;;;;;;16.10;12.70;;;;;;;;;;4970636;28;20245;-77
2022/11/20 01:29:10;;;;;;;18.23;14.03;;;;;;;;;;4971324;28;20199;-77
2022/11/20 01:31:37;;;;;;;16.97;13.63;;;;;;;;;;4956199;29;20198;-76
2022/11/20 01:34:05;;;;;;;18.53;13.33;;;;;;;;;;4971113;28;20194;-77
2022/11/20 01:36:32;;;;;;;15.47;12.83;;;;;;;;;;4973970;28;20187;-79
2022/11/20 01:38:59;;;;;;;16.03;12.77;;;;;;;;;;4958598;28;20193;-79
2022/11/20 01:44:12;;;;;;;19.43;14.40;;;;;;;;;;4975493;28;20288;-79
2022/11/20 01:46:40;;;;;;;16.67;12.87;;;;;;;;;;4954480;29;20231;-79
2022/11/20 01:49:11;;;;;;;16.40;12.20;;;;;;;;;;4963211;28;20187;-79
2022/11/20 01:51:40;;;;;;;18.03;12.13;;;;;;;;;;4975259;28;20178;-77
2022/11/20 01:54:08;;;;;;;17.10;14.95;;;;;;;;;;4974060;28;20426;-77
2022/11/20 01:56:36;;;;;;;19.13;16.67;;;;;;;;;;4973501;28;20530;-76
2022/11/20 01:59:03;;;;;;;17.23;13.60;;;;;;;;;;4971371;28;20229;-76
2022/11/20 02:01:28;;;;;;;17.93;13.03;;;;;;;;;;4939150;29;20183;-77
2022/11/20 02:03:55;;;;;;;15.87;12.40;;;;;;;;;;4942721;29;20277;-77
2022/11/20 02:06:25;;;;;;;16.53;13.07;;;;;;;;;;4941015;29;20191;-77
2022/11/20 02:08:52;;;;;;;15.53;12.57;;;;;;;;;;4954858;29;20180;-79
2022/11/20 02:11:18;;;;;;;15.03;11.87;;;;;;;;;;4977244;28;20184;-81
2022/11/20 02:13:44;;;;;;;15.20;12.63;;;;;;;;;;4967742;28;20195;-80
2022/11/20 02:16:15;;;;;;;23.30;18.33;;;;;;;;;;4965046;28;20190;-80
2022/11/20 02:18:42;;;;;;;18.97;14.20;;;;;;;;;;4983241;28;20255;-80
2022/11/20 02:21:34;;;;;;;19.23;14.67;;;;;;;;;;4985179;28;20261;-81
2022/11/20 02:24:01;;;;;;;17.77;13.83;;;;;;;;;;4947286;28;20210;-80
2022/11/20 02:26:28;;;;;;;16.63;13.90;;;;;;;;;;4967987;28;20281;-79
2022/11/20 02:28:55;;;;;;;18.73;14.00;;;;;;;;;;4980195;28;20175;-80
2022/11/20 02:31:21;;;;;;;16.00;13.47;;;;;;;;;;4983356;28;20181;-80
2022/11/20 02:33:47;;;;;;;17.80;13.50;;;;;;;;;;4984038;28;20265;-80
2022/11/20 02:36:15;;;;;;;17.10;13.90;;;;;;;;;;4983691;28;20186;-80
2022/11/20 02:38:44;;;;;;;19.17;13.87;;;;;;;;;;4983220;28;20186;-77
2022/11/20 02:41:10;;;;;;;17.70;13.97;;;;;;;;;;4981693;28;20218;-77
2022/11/20 02:43:36;;;;;;;20.10;14.20;;;;;;;;;;4971508;28;20209;-85
2022/11/20 02:46:07;;;;;;;18.33;14.00;;;;;;;;;;4969742;28;20225;-86
2022/11/20 02:48:33;;;;;;;17.50;14.07;;;;;;;;;;4987757;28;20178;-86
2022/11/20 02:50:59;;;;;;;20.30;14.83;;;;;;;;;;4970396;28;20179;-85
2022/11/20 02:53:25;;;;;;;19.13;14.03;;;;;;;;;;4986363;28;20176;-86
2022/11/20 02:55:51;;;;;;;21.73;14.30;;;;;;;;;;4967062;28;20198;-85
2022/11/20 02:58:23;;;;;;;18.80;13.90;;;;;;;;;;4985241;28;20193;-77
2022/11/20 03:00:49;;;;;;;17.83;12.97;;;;;;;;;;4971512;28;20336;-77
2022/11/20 03:03:15;;;;;;;18.47;13.43;;;;;;;;;;4984082;28;20217;-76
2022/11/20 03:05:41;;;;;;;16.77;13.03;;;;;;;;;;4968623;28;20195;-76
2022/11/20 03:08:07;;;;;;;19.73;14.07;;;;;;;;;;4976999;28;20190;-76
2022/11/20 03:10:33;;;;;;;16.23;13.20;;;;;;;;;;4960901;28;20190;-76
2022/11/20 03:12:59;;;;;;;17.43;13.07;;;;;;;;;;4976542;28;20183;-76
2022/11/20 03:15:25;;;;;;;18.37;14.00;;;;;;;;;;4976284;28;20191;-78
2022/11/20 03:17:54;;;;;;;19.00;15.60;;;;;;;;;;4976544;28;20434;-79
2022/11/20 03:20:20;;;;;;;18.98;15.85;;;;;;;;;;4976303;28;20406;-79
2022/11/20 03:22:46;;;;;;;18.37;13.40;;;;;;;;;;4976723;28;20245;-79
2022/11/20 03:25:12;;;;;;;19.70;14.33;;;;;;;;;;4960364;28;20220;-79
2022/11/20 03:27:38;;;;;;;17.77;12.80;;;;;;;;;;4977276;28;20201;-78
2022/11/20 03:30:05;;;;;;;17.40;13.30;;;;;;;;;;4976716;28;20187;-78
2022/11/20 03:32:31;;;;;;;18.60;13.80;;;;;;;;;;4976710;28;20177;-76
2022/11/20 03:34:57;;;;;;;21.47;14.33;;;;;;;;;;4976349;28;20187;-76
2022/11/20 03:37:23;;;;;;;17.17;13.30;;;;;;;;;;4960891;28;20193;-76
2022/11/20 03:39:49;;;;;;;17.13;12.53;;;;;;;;;;4975693;28;20205;-76
2022/11/20 03:45:00;;;;;;;18.93;13.60;;;;;;;;;;4977254;28;20277;-76
2022/11/20 03:47:26;;;;;;;18.17;13.53;;;;;;;;;;4959984;28;20184;-76
2022/11/20 03:49:52;;;;;;;16.27;12.47;;;;;;;;;;4957165;29;20192;-79
2022/11/20 03:52:18;;;;;;;19.47;13.23;;;;;;;;;;4948482;28;20283;-79
2022/11/20 03:54:43;;;;;;;17.70;13.23;;;;;;;;;;4966371;23;20191;31
2022/11/20 03:57:09;;;;;;;18.03;13.77;;;;;;;;;;4993597;28;20237;-85
2022/11/20 03:59:35;;;;;;;19.30;13.17;;;;;;;;;;4979107;28;20186;-84
2022/11/20 04:02:01;;;;;;;18.90;13.77;;;;;;;;;;4994819;28;20264;-85
2022/11/20 04:04:27;;;;;;;17.90;13.60;;;;;;;;;;4979241;28;20656;-85
2022/11/20 04:06:53;;;;;;;16.93;13.57;;;;;;;;;;4979044;28;20216;-85
2022/11/20 04:09:19;;;;;;;21.33;14.17;;;;;;;;;;4978850;28;20248;-85
2022/11/20 04:11:45;;;;;;;19.67;14.40;;;;;;;;;;4979205;28;20186;-85
2022/11/20 04:14:13;;;;;;;18.57;13.13;;;;;;;;;;4994180;28;20209;-85
2022/11/20 04:16:39;;;;;;;18.37;13.50;;;;;;;;;;4994379;28;20194;-85
2022/11/20 04:19:10;;;;;;;19.60;13.73;;;;;;;;;;4978762;28;20277;-85
2022/11/20 04:21:36;;;;;;;17.23;14.13;;;;;;;;;;4995149;28;20189;-79
2022/11/20 04:24:02;;;;;;;21.40;14.07;;;;;;;;;;4993950;28;20197;-78
2022/11/20 04:26:29;;;;;;;16.70;13.20;;;;;;;;;;4995285;28;20194;-78
2022/11/20 04:28:55;;;;;;;21.47;14.70;;;;;;;;;;4993306;28;20181;-78
2022/11/20 04:31:22;;;;;;;18.03;13.70;;;;;;;;;;4995809;28;20225;-78
2022/11/20 04:33:48;;;;;;;18.17;13.57;;;;;;;;;;4994529;28;20187;-78
2022/11/20 04:36:18;;;;;;;19.80;13.70;;;;;;;;;;4994729;28;20240;-78
2022/11/20 04:38:45;;;;;;;18.73;14.23;;;;;;;;;;4993573;28;20194;-85
2022/11/20 04:41:18;;;;;;;17.70;13.77;;;;;;;;;;4994599;28;20189;-85
2022/11/20 04:43:48;;;;;;;19.97;13.53;;;;;;;;;;4994311;28;20238;-85
2022/11/20 04:46:14;;;;;;;18.10;13.63;;;;;;;;;;4993876;28;20184;-86
2022/11/20 04:48:40;;;;;;;18.50;12.63;;;;;;;;;;4994249;28;20182;-85
2022/11/20 04:51:06;;;;;;;19.73;13.37;;;;;;;;;;4977319;28;20196;-85
2022/11/20 04:53:32;;;;;;;17.63;12.87;;;;;;;;;;4978104;28;20182;-85
2022/11/20 04:56:02;;;;;;;19.43;13.43;;;;;;;;;;4994012;28;20240;-84
2022/11/20 04:58:28;;;;;;;16.97;12.93;;;;;;;;;;4994166;28;20188;-86
2022/11/20 05:00:54;;;;;;;20.10;14.20;;;;;;;;;;4977453;28;20198;-86
2022/11/20 05:03:20;;;;;;;17.83;12.83;;;;;;;;;;4977431;28;20271;-86
2022/11/20 05:05:46;;;;;;;19.33;14.10;;;;;;;;;;4977377;28;20193;-86
2022/11/20 05:08:12;;;;;;;20.60;14.23;;;;;;;;;;4978004;28;20217;-86
2022/11/20 05:10:38;;;;;;;18.87;14.03;;;;;;;;;;4977913;28;20199;-86
2022/11/20 05:13:04;;;;;;;17.70;13.77;;;;;;;;;;4977044;28;20249;-79
2022/11/20 05:15:30;;;;;;;17.50;13.57;;;;;;;;;;4993960;28;20184;-79
2022/11/20 05:17:56;;;;;;;18.23;14.13;;;;;;;;;;4993562;28;20186;-79
2022/11/20 05:20:22;;;;;;;18.40;14.37;;;;;;;;;;4977280;28;20190;-79
2022/11/20 05:22:48;;;;;;;18.50;13.97;;;;;;;;;;4992941;28;20225;-79
2022/11/20 05:25:14;;;;;;;19.00;14.23;;;;;;;;;;4977412;28;20282;-79
2022/11/20 05:27:40;;;;;;;17.43;14.00;;;;;;;;;;4993700;28;20276;-78
2022/11/20 05:30:06;;;;;;;18.25;14.85;;;;;;;;;;4976475;28;20511;-86
2022/11/20 05:32:33;;;;;;;20.58;18.40;;;;;;;;;;4973573;28;20437;-86
2022/11/20 05:34:58;;;;;;;21.65;19.20;;;;;;;;;;4970281;28;20547;-86
2022/11/20 05:37:25;;;;;;;22.97;16.83;;;;;;;;;;4993474;28;20257;-86
2022/11/20 05:39:50;;;;;;;22.77;16.40;;;;;;;;;;4976591;28;20284;-86
2022/11/20 05:42:32;;;;;;;20.77;15.37;;;;;;;;;;4993150;28;20270;-86
2022/11/20 05:45:01;;;;;;;20.07;15.43;;;;;;;;;;4979227;28;20220;-79
2022/11/20 05:47:28;;;;;;;21.17;15.53;;;;;;;;;;4976790;28;20190;-78
2022/11/20 05:49:54;;;;;;;22.53;15.53;;;;;;;;;;4993296;28;20174;-78
2022/11/20 05:52:20;;;;;;;20.07;15.47;;;;;;;;;;4993028;28;20178;-78
2022/11/20 05:54:46;;;;;;;21.73;16.23;;;;;;;;;;4992408;28;20185;-78
2022/11/20 05:57:12;;;;;;;21.07;16.10;;;;;;;;;;4993402;28;20235;-78
2022/11/20 05:59:38;;;;;;;22.33;15.87;;;;;;;;;;4992535;28;20202;-78
2022/11/20 06:02:04;;;;;;;21.97;15.03;;;;;;;;;;4993297;28;20189;-75
2022/11/20 06:04:30;;;;;;;23.97;16.23;;;;;;;;;;4977026;28;20213;-75
2022/11/20 06:06:56;;;;;;;22.83;16.03;;;;;;;;;;4991236;28;20189;-75
2022/11/20 06:09:22;;;;;;;22.40;15.80;;;;;;;;;;4989135;28;20198;-75
2022/11/20 06:11:48;;;;;;;19.60;15.43;;;;;;;;;;4991394;28;20333;-75
2022/11/20 06:14:14;;;;;;;22.07;15.93;;;;;;;;;;4976992;28;20284;-75
2022/11/20 06:16:40;;;;;;;22.00;15.63;;;;;;;;;;4994355;28;20199;-75
2022/11/20 06:19:06;;;;;;;21.67;15.27;;;;;;;;;;4997110;28;20207;-86
2022/11/20 06:21:32;;;;;;;20.57;15.80;;;;;;;;;;4981018;28;20189;-86
2022/11/20 06:23:58;;;;;;;22.73;15.60;;;;;;;;;;4980917;28;20292;-85
2022/11/20 06:26:26;;;;;;;23.13;15.50;;;;;;;;;;4995812;28;20206;-85
2022/11/20 06:28:52;;;;;;;20.53;15.47;;;;;;;;;;4997115;28;20206;-85
2022/11/20 06:31:20;;;;;;;19.33;15.37;;;;;;;;;;4997089;28;20190;-86
2022/11/20 06:33:46;;;;;;;24.60;15.20;;;;;;;;;;4996299;28;20216;-86
2022/11/20 06:36:13;;;;;;;20.87;15.47;;;;;;;;;;4980823;28;20284;-79
2022/11/20 06:38:39;;;;;;;20.73;16.07;;;;;;;;;;4995799;28;20232;-78
2022/11/20 06:41:06;;;;;;;22.27;15.77;;;;;;;;;;4992914;28;20186;-78
2022/11/20 06:43:32;;;;;;;23.13;15.97;;;;;;;;;;4992895;28;20246;-78
2022/11/20 06:45:58;;;;;;;22.63;17.07;;;;;;;;;;4989141;28;20232;-78
2022/11/20 06:48:26;;;;;;;22.47;16.67;;;;;;;;;;4986852;28;20191;-78
2022/11/20 06:50:52;;;;;;;21.93;16.17;;;;;;;;;;4990261;28;20194;-78
2022/11/20 06:53:18;;;;;;;22.47;16.97;;;;;;;;;;4986419;28;20193;-78
2022/11/20 06:55:44;;;;;;;21.90;16.37;;;;;;;;;;4985936;28;20233;-78
2022/11/20 06:58:10;;;;;;;22.20;16.73;;;;;;;;;;4990012;28;20186;-78
2022/11/20 07:00:36;;;;;;;21.67;16.63;;;;;;;;;;4986907;28;20185;-79
2022/11/20 07:03:06;;;;;;;20.47;16.37;;;;;;;;;;4971422;28;20200;-78
2022/11/20 07:05:32;;;;;;;20.97;16.30;;;;;;;;;;4968767;28;20237;-78
2022/11/20 07:07:58;;;;;;;20.90;16.50;;;;;;;;;;4986879;28;20182;-75
2022/11/20 07:10:25;;;;;;;20.90;15.80;;;;;;;;;;4987920;28;20186;-75
2022/11/20 07:12:52;;;;;;;22.97;16.37;;;;;;;;;;4987900;28;20199;-75
2022/11/20 07:15:18;;;;;;;22.40;16.43;;;;;;;;;;4985300;28;20205;-75
2022/11/20 07:17:44;;;;;;;24.65;17.92;;;;;;;;;;4986804;28;20419;-75
2022/11/20 07:20:11;;;;;;;23.27;20.73;;;;;;;;;;4986943;28;20576;-75
2022/11/20 07:22:37;;;;;;;29.23;22.52;;;;;;;;;;4970920;28;20461;-75
2022/11/20 07:25:03;;;;;;;44.00;26.77;;;;;;;;;;4985188;28;20499;-77
2022/11/20 07:27:29;;;;;;;46.33;27.77;;;;;;;;;;4984525;28;20501;-79
2022/11/20 07:29:55;;;;;;;34.95;27.25;;;;;;;;;;4987875;28;20413;-79
2022/11/20 07:32:22;;;;;;;33.83;26.92;;;;;;;;;;4985631;28;20409;-79
2022/11/20 07:34:48;;;;;;;31.25;25.90;;;;;;;;;;4985536;28;20416;-79
2022/11/20 07:37:14;;;;;;;29.23;25.10;;;;;;;;;;4969945;28;20420;-79
2022/11/20 07:39:40;;;;;;;28.27;24.67;;;;;;;;;;4986600;28;20417;-79
2022/11/20 07:42:07;;;;;;;31.63;25.63;;;;;;;;;;4991631;28;20436;-85
2022/11/20 07:44:33;;;;;;;29.42;24.45;;;;;;;;;;4970465;28;20424;-78
2022/11/20 07:46:59;;;;;;;27.20;19.57;;;;;;;;;;4968966;28;20179;-80
2022/11/20 07:49:25;;;;;;;29.33;23.02;;;;;;;;;;4983035;28;20433;-79
2022/11/20 07:51:53;;;;;;;26.55;23.42;;;;;;;;;;4978920;28;20450;-78
2022/11/20 07:54:20;;;;;;;29.88;22.80;;;;;;;;;;4996265;28;20444;-78
2022/11/20 07:56:46;;;;;;;30.53;23.57;;;;;;;;;;4998358;28;20495;-78
2022/11/20 07:59:12;;;;;;;26.55;22.92;;;;;;;;;;5014274;28;20439;-77
2022/11/20 08:01:38;;;;;;;25.27;22.55;;;;;;;;;;4982321;28;20484;-77
2022/11/20 08:04:04;;;;;;;24.92;22.33;;;;;;;;;;4958997;28;20481;-77
2022/11/20 08:06:30;;;;;;;23.58;20.98;;;;;;;;;;4959274;28;20454;-77
2022/11/20 08:08:56;;;;;;;26.80;21.30;;;;;;;;;;4975148;28;20454;-77
2022/11/20 08:14:13;;;;;;;28.98;22.05;;;;;;;;;;4995326;28;20459;-78
2022/11/20 08:16:40;;;;;;;27.90;21.90;;;;;;;;;;4975305;28;20462;-78
2022/11/20 08:19:06;;;;;;;23.88;21.25;;;;;;;;;;4975375;28;20430;-78
2022/11/20 08:21:32;;;;;;;23.30;20.80;;;;;;;;;;4966594;28;20517;-78
2022/11/20 08:23:58;;;;;;;23.70;21.30;;;;;;;;;;4974655;28;20523;-79
2022/11/20 08:26:25;;;;;;;23.75;21.25;;;;;;;;;;4994173;28;20409;-79
2022/11/20 08:28:57;;;;;;;23.83;21.40;;;;;;;;;;4994454;28;20499;-78
2022/11/20 08:31:24;;;;;;;24.38;21.88;;;;;;;;;;4975964;28;20418;-77
2022/11/20 08:33:50;;;;;;;23.58;21.17;;;;;;;;;;4986177;28;20479;-77
2022/11/20 08:36:17;;;;;;;23.45;21.02;;;;;;;;;;4992101;28;20431;-77
2022/11/20 08:38:47;;;;;;;23.85;21.45;;;;;;;;;;4994588;28;20421;-77
2022/11/20 08:41:26;;;;;;;24.33;21.90;;;;;;;;;;4995021;28;20401;-77
2022/11/20 08:43:55;;;;;;;23.45;21.05;;;;;;;;;;4979387;28;20440;-77
2022/11/20 08:46:21;;;;;;;23.38;20.98;;;;;;;;;;4994061;28;20491;-77
2022/11/20 08:48:47;;;;;;;21.75;19.60;;;;;;;;;;4977915;28;20437;-77
2022/11/20 08:51:14;;;;;;;20.75;18.65;;;;;;;;;;4994293;28;20416;-77
2022/11/20 08:53:40;;;;;;;20.40;18.40;;;;;;;;;;4989074;28;20500;-79
2022/11/20 08:56:06;;;;;;;20.95;18.95;;;;;;;;;;4981841;28;20442;-78
2022/11/20 08:58:32;;;;;;;21.83;19.65;;;;;;;;;;4974704;28;20418;-79
2022/11/20 09:00:58;;;;;;;22.17;20.00;;;;;;;;;;4987732;28;20444;-78
2022/11/20 09:03:26;;;;;;;20.70;18.52;;;;;;;;;;4993912;28;20476;-78
2022/11/20 09:05:57;;;;;;;18.90;17.00;;;;;;;;;;4994675;28;20417;-79
2022/11/20 09:08:23;;;;;;;19.58;17.67;;;;;;;;;;4977257;28;20418;-79
2022/11/20 09:10:52;;;;;;;19.98;18.10;;;;;;;;;;4966063;28;20429;-79
2022/11/20 09:13:18;;;;;;;18.35;16.65;;;;;;;;;;4974127;28;20476;-79
2022/11/20 09:15:43;;;;;;;19.60;17.65;;;;;;;;;;4976170;28;20441;-80
2022/11/20 09:18:09;;;;;;;19.85;17.85;;;;;;;;;;4977324;28;20412;-80
2022/11/20 09:20:35;;;;;;;21.00;18.95;;;;;;;;;;4977136;28;20417;-80
2022/11/20 09:23:01;;;;;;;22.33;20.17;;;;;;;;;;4992846;28;20419;-86
2022/11/20 09:25:27;;;;;;;23.27;20.98;;;;;;;;;;4974741;28;20441;-87
2022/11/20 09:27:57;;;;;;;23.38;21.08;;;;;;;;;;4976262;28;20495;-86
2022/11/20 09:30:23;;;;;;;19.90;17.80;;;;;;;;;;4993900;28;20241;-86
2022/11/20 09:32:49;;;;;;;23.13;19.17;;;;;;;;;;4993778;28;20178;-86
2022/11/20 09:35:15;;;;;;;21.17;17.90;;;;;;;;;;4993981;28;20189;-86
2022/11/20 09:37:41;;;;;;;25.20;19.40;;;;;;;;;;4993854;28;20181;-86
2022/11/20 09:40:17;;;;;;;21.50;18.63;;;;;;;;;;4993894;28;20208;-86
2022/11/20 09:43:02;;;;;;;23.07;19.17;;;;;;;;;;4994062;28;20192;-86
2022/11/20 09:45:28;;;;;;;23.97;19.20;;;;;;;;;;4990346;28;20217;-86
2022/11/20 09:48:09;;;;;;;22.40;18.67;;;;;;;;;;4977776;28;20268;-85
2022/11/20 09:50:56;;;;;;;22.07;19.10;;;;;;;;;;4986601;28;20186;-86
2022/11/20 09:53:22;;;;;;;25.50;20.20;;;;;;;;;;4968170;28;20189;-85
2022/11/20 09:55:48;;;;;;;27.17;20.10;;;;;;;;;;4993392;28;20230;-76
2022/11/20 09:58:46;;;;;;;27.37;19.93;;;;;;;;;;4974287;28;20198;-76
2022/11/20 10:01:16;;;;;;;25.57;19.47;;;;;;;;;;4964537;28;20182;-76
2022/11/20 10:03:42;;;;;;;25.27;20.77;;;;;;;;;;4992224;28;20237;-76
2022/11/20 10:06:11;;;;;;;26.47;21.27;;;;;;;;;;4990757;28;20182;-76
2022/11/20 10:08:41;;;;;;;26.87;21.83;;;;;;;;;;4992757;28;20178;-76
2022/11/20 10:11:13;;;;;;;28.43;21.63;;;;;;;;;;4993186;28;20178;-76
2022/11/20 10:13:58;;;;;;;28.97;21.53;;;;;;;;;;4995054;28;20178;-79
2022/11/20 10:16:27;;;;;;;30.90;22.43;;;;;;;;;;4993384;28;20177;-79
2022/11/20 10:19:12;;;;;;;31.03;24.10;;;;;;;;;;4992512;28;20178;-79
2022/11/20 10:21:55;;;;;;;30.33;23.20;;;;;;;;;;4983127;28;20178;-79
2022/11/20 10:24:44;;;;;;;29.93;22.80;;;;;;;;;;4991578;28;20237;-79
2022/11/20 10:27:29;;;;;;;30.43;22.80;;;;;;;;;;4993254;28;20277;-79
2022/11/20 10:30:15;;;;;;;28.93;22.97;;;;;;;;;;4988689;28;20233;-79
2022/11/20 10:33:01;;;;;;;29.70;23.37;;;;;;;;;;4989959;28;20198;-79
2022/11/20 10:35:42;;;;;;;30.90;23.40;;;;;;;;;;4992662;28;20202;-79
2022/11/20 10:38:22;;;;;;;28.87;22.17;;;;;;;;;;4993310;28;20181;-79
2022/11/20 10:41:24;;;;;;;29.83;23.13;;;;;;;;;;4989847;28;20183;-79
2022/11/20 10:43:46;;;;;;;30.90;22.90;;;;;;;;;;4990818;28;20206;-86
2022/11/20 10:46:22;;;;;;;26.50;22.20;;;;;;;;;;4991220;28;20248;-76
2022/11/20 10:48:48;;;;;;;31.07;22.30;;;;;;;;;;4993079;28;20185;-77
2022/11/20 10:51:33;;;;;;;24.77;20.13;;;;;;;;;;4992415;28;20185;-76
2022/11/20 10:54:02;;;;;;;28.50;20.93;;;;;;;;;;4991151;28;20181;-77
2022/11/20 10:56:36;;;;;;;26.07;20.27;;;;;;;;;;4991866;28;20237;-77
2022/11/20 10:59:12;;;;;;;26.20;20.47;;;;;;;;;;4985079;28;20182;-77
2022/11/20 11:01:42;;;;;;;27.10;21.30;;;;;;;;;;4989509;28;20185;-79
2022/11/20 11:04:29;;;;;;;27.20;21.13;;;;;;;;;;4993031;28;20211;-79
2022/11/20 11:06:57;;;;;;;27.97;21.20;;;;;;;;;;4995570;28;20197;-79
2022/11/20 11:09:30;;;;;;;30.20;22.43;;;;;;;;;;4983855;28;20186;-79
2022/11/20 11:11:57;;;;;;;30.63;22.43;;;;;;;;;;4997215;28;20182;-79
2022/11/20 11:14:24;;;;;;;27.43;21.73;;;;;;;;;;4994623;28;20280;-80
2022/11/20 11:16:51;;;;;;;29.63;23.67;;;;;;;;;;4995056;28;20185;-80
2022/11/20 11:19:17;;;;;;;28.93;23.73;;;;;;;;;;4993672;28;20233;-86
2022/11/20 11:21:47;;;;;;;33.07;24.13;;;;;;;;;;4995952;28;20186;-86
2022/11/20 11:24:27;;;;;;;28.50;23.13;;;;;;;;;;4995396;28;20233;-77
2022/11/20 11:27:05;;;;;;;32.23;25.47;;;;;;;;;;4979605;28;20174;-77
2022/11/20 11:29:31;;;;;;;32.33;24.50;;;;;;;;;;4993764;28;20182;-86
2022/11/20 11:32:05;;;;;;;32.13;25.57;;;;;;;;;;4994570;28;20209;-86
2022/11/20 11:34:31;;;;;;;30.53;24.07;;;;;;;;;;4991590;28;20185;-86
2022/11/20 11:36:58;;;;;;;31.43;24.67;;;;;;;;;;4975067;28;20190;-86
2022/11/20 11:39:25;;;;;;;32.93;26.77;;;;;;;;;;4991550;28;20186;-86
2022/11/20 11:41:51;;;;;;;32.17;26.60;;;;;;;;;;4995489;28;20261;-86
2022/11/20 11:47:06;;;;;;;33.63;27.27;;;;;;;;;;4993896;28;20193;-86
2022/11/20 11:49:32;;;;;;;36.43;27.23;;;;;;;;;;4985741;28;20209;-86
2022/11/20 11:52:04;;;;;;;32.80;27.13;;;;;;;;;;4989867;28;20193;-86
2022/11/20 11:54:36;;;;;;;32.70;26.37;;;;;;;;;;4994848;28;20178;-86
2022/11/20 11:57:05;;;;;;;32.87;25.87;;;;;;;;;;4993303;28;20225;-86
2022/11/20 11:59:42;;;;;;;31.17;25.83;;;;;;;;;;4991161;28;20281;-86
2022/11/20 12:02:29;;;;;;;32.00;25.30;;;;;;;;;;4979958;28;20245;-86
2022/11/20 12:04:58;;;;;;;32.00;25.70;;;;;;;;;;4980921;28;20256;-86
2022/11/20 12:07:39;;;;;;;29.57;24.03;;;;;;;;;;4991913;28;20186;-86
2022/11/20 12:10:08;;;;;;;29.00;23.70;;;;;;;;;;4991360;28;20178;-77
2022/11/20 12:12:41;;;;;;;29.03;23.10;;;;;;;;;;4990027;28;20181;-77
2022/11/20 12:15:11;;;;;;;34.37;27.53;;;;;;;;;;4992061;28;20321;-77
2022/11/20 12:17:37;;;;;;;29.43;23.60;;;;;;;;;;5003153;28;20181;-77
2022/11/20 12:20:03;;;;;;;28.03;22.77;;;;;;;;;;4984639;28;20199;-77
2022/11/20 12:22:29;;;;;;;32.37;24.37;;;;;;;;;;4963672;28;20228;-77
2022/11/20 12:25:10;;;;;;;28.53;24.20;;;;;;;;;;4989547;28;20209;-79
2022/11/20 12:27:55;;;;;;;30.53;25.47;;;;;;;;;;4983299;28;20183;-79
2022/11/20 12:30:23;;;;;;;31.63;25.93;;;;;;;;;;4989650;28;20186;-79
2022/11/20 12:33:08;;;;;;;33.33;26.63;;;;;;;;;;4994924;28;20189;-80
2022/11/20 12:35:47;;;;;;;34.50;26.50;;;;;;;;;;4994878;28;20213;-80
2022/11/20 12:38:30;;;;;;;34.73;26.20;;;;;;;;;;4994656;28;20181;-80
2022/11/20 12:41:14;;;;;;;32.17;26.33;;;;;;;;;;4985291;28;20232;-80
2022/11/20 12:46:39;;;;;;;34.27;25.97;;;;;;;;;;4976499;28;20186;-84
2022/11/20 12:49:12;;;;;;;30.73;25.80;;;;;;;;;;4976973;28;20182;-85
2022/11/20 12:51:45;;;;;;;39.23;29.27;;;;;;;;;;4991513;28;20194;-85
2022/11/20 12:54:20;;;;;;;49.90;38.30;;;;;;;;;;4993449;28;20256;-85
2022/11/20 12:57:05;;;;;;;37.80;28.73;;;;;;;;;;4993663;28;20241;-86
2022/11/20 12:59:34;;;;;;;37.60;27.83;;;;;;;;;;4994304;28;20186;-80
2022/11/20 13:02:14;;;;;;;35.03;26.90;;;;;;;;;;4995286;28;20178;-80
2022/11/20 13:04:59;;;;;;;34.30;26.23;;;;;;;;;;4993551;28;20205;-79
2022/11/20 13:07:25;;;;;;;34.10;27.37;;;;;;;;;;4994506;28;20229;-79
2022/11/20 13:09:52;;;;;;;43.90;34.77;;;;;;;;;;4994352;28;20269;-79
2022/11/20 13:12:25;;;;;;;39.90;29.87;;;;;;;;;;4993911;28;20182;-79
2022/11/20 13:14:51;;;;;;;41.03;32.40;;;;;;;;;;4994328;28;20217;-77
2022/11/20 13:17:22;;;;;;;35.23;27.70;;;;;;;;;;4993887;28;20217;-77
2022/11/20 13:19:54;;;;;;;36.07;28.17;;;;;;;;;;4994852;28;20178;-77
2022/11/20 13:22:27;;;;;;;39.43;30.47;;;;;;;;;;4992697;28;20186;-77
2022/11/20 13:24:53;;;;;;;35.13;29.07;;;;;;;;;;4990368;28;20218;-77
2022/11/20 13:27:20;;;;;;;39.40;31.03;;;;;;;;;;4991259;28;20174;-77
2022/11/20 13:29:48;;;;;;;60.90;45.70;;;;;;;;;;4988724;28;20197;-76
2022/11/20 13:32:14;;;;;;;48.57;37.33;;;;;;;;;;4991572;28;20182;-79
2022/11/20 13:34:40;;;;;;;40.93;32.33;;;;;;;;;;4993570;28;20194;-79
2022/11/20 13:37:06;;;;;;;36.00;28.07;;;;;;;;;;4983694;28;20189;-80
2022/11/20 13:39:34;;;;;;;40.60;31.00;;;;;;;;;;4976262;28;20309;-80
2022/11/20 13:42:21;;;;;;;38.77;30.53;;;;;;;;;;4992259;28;20189;-80
2022/11/20 13:45:01;;;;;;;40.50;30.50;;;;;;;;;;4993221;28;20245;-80
2022/11/20 13:47:29;;;;;;;41.67;31.47;;;;;;;;;;4993799;28;20260;-80
2022/11/20 13:50:02;;;;;;;43.60;30.73;;;;;;;;;;4975378;28;20233;-85
2022/11/20 13:52:46;;;;;;;44.87;34.23;;;;;;;;;;4993343;28;20186;-86
2022/11/20 13:55:31;;;;;;;45.50;33.10;;;;;;;;;;4993520;28;20181;-85
2022/11/20 13:58:00;;;;;;;42.10;31.17;;;;;;;;;;4993383;28;20197;-85
2022/11/20 14:00:26;;;;;;;41.90;31.83;;;;;;;;;;4993846;28;20186;-85
2022/11/20 14:03:22;;;;;;;45.07;32.97;;;;;;;;;;4992495;28;20186;-86
2022/11/20 14:05:51;;;;;;;44.67;31.97;;;;;;;;;;4984295;28;20210;-78
2022/11/20 14:08:24;;;;;;;42.30;31.80;;;;;;;;;;4992792;28;20202;-79
2022/11/20 14:10:50;;;;;;;44.07;32.23;;;;;;;;;;4993521;28;20182;-79
2022/11/20 14:13:18;;;;;;;44.87;32.40;;;;;;;;;;4994434;28;20261;-79
2022/11/20 14:15:44;;;;;;;45.30;33.00;;;;;;;;;;4992335;28;20186;-78
2022/11/20 14:18:15;;;;;;;47.50;34.90;;;;;;;;;;4993287;28;20301;-79
2022/11/20 14:20:42;;;;;;;53.13;38.10;;;;;;;;;;4994238;28;20178;-79
2022/11/20 14:23:09;;;;;;;48.17;36.10;;;;;;;;;;4991625;28;20191;-79
2022/11/20 14:25:36;;;;;;;48.57;36.27;;;;;;;;;;4993024;28;20210;-79
2022/11/20 14:28:03;;;;;;;53.33;39.07;;;;;;;;;;4993257;28;20244;-79
2022/11/20 14:30:36;;;;;;;49.50;36.10;;;;;;;;;;4993693;28;20189;-79
2022/11/20 14:33:03;;;;;;;49.13;36.30;;;;;;;;;;4993087;28;20178;-79
2022/11/20 14:35:31;;;;;;;46.27;33.90;;;;;;;;;;4992855;28;20217;-79
2022/11/20 14:37:57;;;;;;;44.30;33.40;;;;;;;;;;4995872;28;20177;-84
2022/11/20 14:40:23;;;;;;;47.87;34.27;;;;;;;;;;4997204;28;20185;-85